createdAt,value
2022-11-06T00:04:34.525Z,3.70
2022-11-06T00:09:37.467Z,9.30
2022-11-06T00:14:40.370Z,9.10
2022-11-06T00:19:44.635Z,8.27
2022-11-06T00:24:49.396Z,8.13
2022-11-06T00:29:52.279Z,7.70
2022-11-06T00:34:56.550Z,5.43
2022-11-06T00:40:00.778Z,7.57
2022-11-06T00:45:03.669Z,7.27
2022-11-06T00:50:09.080Z,6.47
2022-11-06T00:55:12.501Z,6.07
2022-11-06T01:00:18.067Z,4.93
2022-11-06T01:05:22.345Z,3.40
2022-11-06T01:10:25.243Z,4.57
2022-11-06T01:15:28.117Z,4.80
2022-11-06T01:20:32.413Z,4.67
2022-11-06T01:25:35.333Z,6.20
2022-11-06T01:30:38.471Z,5.17
2022-11-06T01:35:47.175Z,4.93
2022-11-06T01:40:50.814Z,4.60
2022-11-06T01:45:55.280Z,4.67
2022-11-06T01:51:00.278Z,5.23
2022-11-06T01:56:06.063Z,4.50
2022-11-06T02:01:09.352Z,5.20
2022-11-06T02:06:14.190Z,4.77
2022-11-06T02:11:17.057Z,5.73
2022-11-06T02:16:30.901Z,6.30
2022-11-06T02:21:55.707Z,4.10
2022-11-06T02:27:10.391Z,4.40
2022-11-06T02:32:19.790Z,4.10
2022-11-06T02:37:29.177Z,5.70
2022-11-06T02:42:38.361Z,5.90
2022-11-06T02:47:44.253Z,6.70
2022-11-06T02:52:53.262Z,6.00
2022-11-06T02:58:01.566Z,4.00
2022-11-06T03:03:11.582Z,4.40
2022-11-06T03:08:21.679Z,4.10
2022-11-06T03:13:33.718Z,4.10
2022-11-06T03:18:43.210Z,4.10
2022-11-06T03:23:53.701Z,3.80
2022-11-06T03:29:02.893Z,4.17
2022-11-06T03:34:11.690Z,4.33
2022-11-06T03:39:20.589Z,4.63
2022-11-06T03:44:29.522Z,4.33
2022-11-06T03:49:36.393Z,3.90
2022-11-06T03:54:43.352Z,4.50
2022-11-06T03:59:52.591Z,4.60
2022-11-06T04:04:59.961Z,4.53
2022-11-06T04:10:39.468Z,4.83
2022-11-06T04:15:49.026Z,4.57
2022-11-06T04:21:18.559Z,4.50
2022-11-06T04:32:07.942Z,4.70
2022-11-06T04:37:16.136Z,14.67
2022-11-06T04:42:26.943Z,46.57
2022-11-06T04:47:31.366Z,21.60
2022-11-06T04:52:36.376Z,18.20
2022-11-06T04:57:39.295Z,7.70
2022-11-06T05:02:43.569Z,5.87
2022-11-06T05:07:46.458Z,7.30
2022-11-06T05:12:49.375Z,5.60
2022-11-06T05:17:53.653Z,4.13
2022-11-06T05:23:00.668Z,3.90
2022-11-06T05:28:07.063Z,4.63
2022-11-06T05:33:11.347Z,5.57
2022-11-06T05:38:14.636Z,8.70
2022-11-06T05:43:17.761Z,8.37
2022-11-06T05:48:22.258Z,7.20
2022-11-06T05:53:25.154Z,6.17
2022-11-06T05:58:28.715Z,5.90
2022-11-06T06:03:33.055Z,5.33
2022-11-06T06:08:36.212Z,5.90
2022-11-06T06:13:39.178Z,5.93
2022-11-06T06:18:43.455Z,5.50
2022-11-06T06:23:46.592Z,10.20
2022-11-06T06:28:50.208Z,6.83
2022-11-06T06:33:54.748Z,8.20
2022-11-06T06:38:57.888Z,7.57
2022-11-06T06:44:00.965Z,9.20
2022-11-06T06:49:05.459Z,7.90
2022-11-06T06:54:08.618Z,8.23
2022-11-06T06:59:11.523Z,7.63
2022-11-06T07:04:16.739Z,8.60
2022-11-06T07:09:19.789Z,8.17
2022-11-06T07:14:22.732Z,6.00
2022-11-06T07:19:27.573Z,4.57
2022-11-06T07:24:30.696Z,5.37
2022-11-06T07:29:33.624Z,9.13
2022-11-06T07:34:38.928Z,5.60
2022-11-06T07:39:41.973Z,6.30
2022-11-06T07:44:44.975Z,5.83
2022-11-06T07:49:51.113Z,5.57
2022-11-06T07:54:54.653Z,5.93
2022-11-06T07:59:57.598Z,5.93
2022-11-06T08:05:02.057Z,6.90
2022-11-06T08:10:05.959Z,5.93
2022-11-06T08:15:09.520Z,8.90
2022-11-06T08:20:13.959Z,7.67
2022-11-06T08:25:16.965Z,6.97
2022-11-06T08:30:19.890Z,7.53
2022-11-06T08:35:24.175Z,7.30
2022-11-06T08:40:30.882Z,8.10
2022-11-06T08:45:37.184Z,5.83
2022-11-06T08:50:42.475Z,7.40
2022-11-06T08:55:45.619Z,8.17
2022-11-06T09:00:48.667Z,8.40
2022-11-06T09:05:53.017Z,9.90
2022-11-06T09:10:58.627Z,6.90
2022-11-06T09:16:02.210Z,9.00
2022-11-06T09:21:06.835Z,10.30
2022-11-06T09:26:09.971Z,8.90
2022-11-06T09:31:12.950Z,10.70
2022-11-06T09:36:17.209Z,10.20
2022-11-06T09:41:24.873Z,6.67
2022-11-06T09:46:31.519Z,5.23
2022-11-06T09:51:40.325Z,5.00
2022-11-06T09:56:46.648Z,5.30
2022-11-06T10:01:54.476Z,5.30
2022-11-06T10:06:59.031Z,5.10
2022-11-06T10:12:10.586Z,4.30
2022-11-06T10:17:24.292Z,4.27
2022-11-06T10:22:37.736Z,4.53
2022-11-06T10:27:42.905Z,3.77
2022-11-06T10:33:05.685Z,3.97
2022-11-06T10:38:15.433Z,4.20
2022-11-06T10:43:31.866Z,3.90
2022-11-06T10:48:41.525Z,3.80
2022-11-06T10:53:56.428Z,3.57
2022-11-06T10:58:59.600Z,4.50
2022-11-06T11:04:02.610Z,4.03
2022-11-06T11:09:28.534Z,4.20
2022-11-06T11:14:33.152Z,4.13
2022-11-06T11:19:37.414Z,3.70
2022-11-06T11:25:00.621Z,3.70
2022-11-06T11:30:05.597Z,3.40
2022-11-06T11:35:12.974Z,4.10
2022-11-06T11:40:37.498Z,3.87
2022-11-06T11:45:40.457Z,6.23
2022-11-06T11:50:43.515Z,3.90
2022-11-06T11:55:50.418Z,5.60
2022-11-06T12:00:56.865Z,3.20
2022-11-06T12:06:10.305Z,3.33
2022-11-06T12:11:20.728Z,3.30
2022-11-06T12:16:23.899Z,3.23
2022-11-06T12:21:31.166Z,3.37
2022-11-06T12:26:39.894Z,3.23
2022-11-06T12:31:48.901Z,3.23
2022-11-06T12:37:12.678Z,3.30
2022-11-06T12:42:18.775Z,3.30
2022-11-06T12:47:30.467Z,3.60
2022-11-06T12:52:55.389Z,4.33
2022-11-06T12:58:15.196Z,9.77
2022-11-06T13:03:50.251Z,4.17
2022-11-06T13:08:59.687Z,3.70
2022-11-06T13:14:20.644Z,4.10
2022-11-06T13:19:31.642Z,4.23
2022-11-06T13:24:41.597Z,4.27
2022-11-06T13:29:46.724Z,4.60
2022-11-06T13:34:53.588Z,4.53
2022-11-06T13:40:02.868Z,4.77
2022-11-06T13:45:09.542Z,6.87
2022-11-06T13:50:20.838Z,7.93
2022-11-06T13:55:34.417Z,8.97
2022-11-06T14:00:49.318Z,8.00
2022-11-06T14:05:58.775Z,8.90
2022-11-06T14:11:06.701Z,7.60
2022-11-06T14:16:29.972Z,7.80
2022-11-06T14:21:51.910Z,9.30
2022-11-06T14:26:54.871Z,8.60
2022-11-06T14:32:03.258Z,10.50
2022-11-06T14:37:39.450Z,9.80
2022-11-06T14:42:45.677Z,11.10
2022-11-06T14:47:56.555Z,9.60
2022-11-06T14:53:02.573Z,9.43
2022-11-06T14:58:20.123Z,11.70
2022-11-06T15:03:33.538Z,10.50
2022-11-06T15:09:13.012Z,11.00
2022-11-06T15:14:53.709Z,10.70
2022-11-06T15:20:08.975Z,8.00
2022-11-06T15:25:22.822Z,10.00
2022-11-06T15:30:27.130Z,9.20
2022-11-06T15:35:36.757Z,9.17
2022-11-06T15:40:41.829Z,9.53
2022-11-06T15:45:44.884Z,11.77
2022-11-06T15:50:49.172Z,11.97
2022-11-06T15:55:56.801Z,13.57
2022-11-06T16:01:00.979Z,16.67
2022-11-06T16:06:06.105Z,15.00
2022-11-06T16:11:13.594Z,14.80
2022-11-06T16:16:35.936Z,15.70
2022-11-06T16:21:40.345Z,15.43
2022-11-06T16:26:48.162Z,15.00
2022-11-06T16:32:01.101Z,13.57
2022-11-06T16:37:07.177Z,14.00
2022-11-06T16:42:27.197Z,14.30
2022-11-06T16:47:30.600Z,12.37
2022-11-06T16:52:38.862Z,14.10
2022-11-06T16:57:45.988Z,15.03
2022-11-06T17:02:51.481Z,16.37
2022-11-06T17:08:08.082Z,14.77
2022-11-06T17:13:14.769Z,12.90
2022-11-06T17:18:20.481Z,13.10
2022-11-06T17:23:27.458Z,12.73
2022-11-06T17:28:30.553Z,14.20
2022-11-06T17:33:33.506Z,14.20
2022-11-06T17:43:41.068Z,16.50
2022-11-06T17:48:43.996Z,20.80
2022-11-06T17:53:49.464Z,18.53
2022-11-06T17:58:52.818Z,14.43
2022-11-06T18:03:55.854Z,15.27
2022-11-06T18:09:01.238Z,17.40
2022-11-06T18:14:04.939Z,16.70
2022-11-06T18:19:09.405Z,18.60
2022-11-06T18:24:13.836Z,24.50
2022-11-06T18:29:16.762Z,16.90
2022-11-06T18:34:21.308Z,14.73
2022-11-06T18:39:25.885Z,23.03
2022-11-06T18:44:28.904Z,17.50
2022-11-06T18:49:31.871Z,14.90
2022-11-06T18:54:36.266Z,14.30
2022-11-06T18:59:39.171Z,15.23
2022-11-06T19:04:42.101Z,15.43
2022-11-06T19:09:46.423Z,17.10
2022-11-06T19:14:49.376Z,15.23
2022-11-06T19:19:52.393Z,19.87
2022-11-06T19:24:56.702Z,21.87
2022-11-06T19:29:59.659Z,16.90
2022-11-06T19:35:02.603Z,13.67
2022-11-06T19:40:08.738Z,14.40
2022-11-06T19:45:12.070Z,16.83
2022-11-06T19:50:15.032Z,18.27
2022-11-06T19:55:26.311Z,16.00
2022-11-06T20:00:30.599Z,14.53
2022-11-06T20:05:33.547Z,18.20
2022-11-06T20:10:38.252Z,13.67
2022-11-06T20:15:41.263Z,11.40
2022-11-06T20:20:44.173Z,11.80
2022-11-06T20:25:53.065Z,10.57
2022-11-06T20:30:56.155Z,10.17
2022-11-06T20:35:59.130Z,9.20
2022-11-06T20:41:03.425Z,13.00
2022-11-06T20:46:06.757Z,13.37
2022-11-06T20:51:11.975Z,27.57
2022-11-06T20:56:18.367Z,19.07
2022-11-06T21:01:23.662Z,17.17
2022-11-06T21:06:27.764Z,13.00
2022-11-06T21:11:32.133Z,11.10
2022-11-06T21:16:37.283Z,10.80
2022-11-06T21:21:40.850Z,12.20
2022-11-06T21:26:45.196Z,11.43
2022-11-06T21:31:49.285Z,9.57
2022-11-06T21:36:52.412Z,10.57
2022-11-06T21:41:56.732Z,9.17
2022-11-06T21:46:59.741Z,8.37
2022-11-06T21:52:17.655Z,7.77
2022-11-06T21:57:23.181Z,6.37
2022-11-06T22:02:26.250Z,6.77
2022-11-06T22:07:29.309Z,9.93
2022-11-06T22:12:35.408Z,8.80
2022-11-06T22:17:38.311Z,7.93
2022-11-06T22:22:41.304Z,6.80
2022-11-06T22:27:45.688Z,6.40
2022-11-06T22:32:48.656Z,6.57
2022-11-06T22:37:51.580Z,8.30
2022-11-06T22:42:55.859Z,6.47
2022-11-06T22:47:59.163Z,5.90
2022-11-06T22:53:02.131Z,5.57
2022-11-06T22:58:06.505Z,7.00
2022-11-06T23:03:09.463Z,6.17
2022-11-06T23:08:12.440Z,6.63
2022-11-06T23:13:16.821Z,6.90
2022-11-06T23:18:19.741Z,6.70
2022-11-06T23:23:22.667Z,7.17
2022-11-06T23:28:26.994Z,8.93
2022-11-06T23:33:31.653Z,8.03
2022-11-06T23:38:34.580Z,8.30
2022-11-06T23:43:38.860Z,7.33
2022-11-06T23:48:41.776Z,6.90
2022-11-06T23:53:44.788Z,7.20
2022-11-06T23:58:49.123Z,7.00
